Details From MDPP - Puerto Plata Gregorio Luperon Intl
To MTPP - TOUSSAINT LOUVERTURE INTL
Flight Number -
Tags decoded
Created
Modified
Stats Distance 129 nm / 239 km
Max Altitude 0 ft / 0 m
Waypoints 5
Social Downloads 3
Likes 0
Share VATSIM

Download

Looking for another format? Having issues loading an existing format? Contact us
Advertisement - Login to hide

Notes

Requested: MDPP RESOR POBIN ETBOD MTPP

Route

MDPP RESOR POBIN ETBOD MTPP

ID Type Via Altitude Latitude Longitude Leg Dist Tot Dist Heading (true) Name
O MDPP APT - 0 ft / 0 m 19.75790˚ -70.57003˚ - 0 nm - Puerto Plata Gregorio Luperon Intl
RESOR FIX - 0 ft / 0 m 19.54694˚ -70.79528˚ 17 nm 17 nm 225° / 225° -
POBIN FIX - 0 ft / 0 m 19.39500˚ -70.95722˚ 12 nm 30 nm 225° / 225° -
ETBOD FIX - 0 ft / 0 m 18.51667˚ -71.88333˚ 74 nm 105 nm 225° / 225° -
O MTPP APT - 0 ft / 0 m 18.58005˚ -72.29254˚ 23 nm 129 nm 279° / 279° TOUSSAINT LOUVERTURE INTL

Altitude Profile

Advertisement - Login to hide

MDPP

Details ICAO MDPP (POP)
Name Puerto Plata Gregorio Luperon Intl
Region Dominican Republic
Timezone America/Santo_Domingo (UTC-4.0)
Stats Elevation 15 ft / 5 m (AMSL)
Location 19.757900° -70.570035°
Runways 1
Magnetic Variation 11.227° W

METAR

MDPP 110000Z 00000KT 9999 FEW018 24/24 Q1015

Decode

TAF

Not found

Departure Runways

ID Width Length Bearing (true) Bearing (mag) Surface Threshold Offset Overrun Length
08 151 ft / 46 m 10,101 ft / 3,079 m 72.95° 84.18° Asphalt 0 ft / 0 m 0 ft / 0 m
26 151 ft / 46 m 10,101 ft / 3,079 m 252.95° 264.18° Asphalt 0 ft / 0 m 0 ft / 0 m

MTPP

Details ICAO MTPP (PAP)
Name TOUSSAINT LOUVERTURE INTL
Region Haiti
Timezone America/Port-au-Prince (UTC-5.0)
Stats Elevation 122 ft / 37 m (AMSL)
Location 18.580051° -72.292540°
Runways 1
Magnetic Variation 10.191° W

METAR

MTPP 110000Z 31008KT 8000 FEW024 BKN070 28/24 Q1013 A2992

Decode

TAF

TAF MTPP 101700Z 1018/1118 30010KT 9000 FEW026 PROB30 TEMPO 1022/1104 4500 SHRA FEW020CB BKN030 BECMG 1106/1110 VRB02KT 8000 NSW FEW016 SCT020 FM111400 06008KT 8000 SCT022

Decode

Destination Runways

ID Width Length Bearing (true) Bearing (mag) Surface Threshold Offset Overrun Length
10 141 ft / 43 m 9,963 ft / 3,037 m 86.96° 97.15° Asphalt 0 ft / 0 m 0 ft / 0 m
28 141 ft / 43 m 9,963 ft / 3,037 m 266.97° 277.16° Asphalt 0 ft / 0 m 0 ft / 0 m

Approach Navaids

Runway Type Ident Frequency Range Bearing (true) Bearing (mag) Slope Elevation
10 Localiser IMG 111.50 MHz 18 nm / 33 km 87.00° 97.19° - 121 ft / 37 m (AMSL)
10 Glidescope IMG 111.50 MHz 10 nm / 19 km 73.67° 83.86° 3.00° 122 ft / 37 m (AMSL)
10 DME IMG 111.50 MHz 18 nm / 33 km - - - 121 ft / 37 m (AMSL)

Popular Alternatives